Time;durP1;ratioP1;P1;durP2;ratioP2;P2;SDS_P1;SDS_P2;PMS_P1;PMS_P2;Temp;Humidity;BMP_temperature;BMP_pressure;BME280_temperature;BME280_humidity;BME280_pressure;Samples;Min_cycle;Max_cycle;Signal;HPM_P1;HPM_P2
2023/03/21 00:00:27;;;;;;;22.00;12.35;;;;;;;8.70;100.00;101564.56;5041954;28;20029;-59
2023/03/21 00:02:53;;;;;;;21.00;12.07;;;;;;;8.67;100.00;101556.88;5033813;28;20033;-59
2023/03/21 00:05:19;;;;;;;21.17;12.63;;;;;;;8.63;100.00;101555.47;5046965;28;20033;-58
2023/03/21 00:07:45;;;;;;;23.80;12.68;;;;;;;8.61;100.00;101558.25;5039307;28;20361;-61
2023/03/21 00:10:10;;;;;;;20.40;12.15;;;;;;;8.59;100.00;101548.78;5025141;28;20056;-58
2023/03/21 00:12:36;;;;;;;25.15;12.35;;;;;;;8.55;100.00;101550.00;5032911;28;20025;-58
2023/03/21 00:15:04;;;;;;;23.08;13.00;;;;;;;8.48;100.00;101542.56;5039321;28;20500;-59
2023/03/21 00:17:31;;;;;;;23.55;12.70;;;;;;;8.51;100.00;101540.63;5022079;28;20022;-59
2023/03/21 00:20:00;;;;;;;20.38;12.57;;;;;;;8.51;100.00;101540.63;5035498;28;20041;-59
2023/03/21 00:22:26;;;;;;;22.25;12.57;;;;;;;8.51;100.00;101541.47;5037085;28;20103;-58
2023/03/21 00:24:52;;;;;;;22.65;12.77;;;;;;;8.50;100.00;101533.66;5032540;28;20029;-58
2023/03/21 00:27:20;;;;;;;26.48;12.70;;;;;;;8.52;100.00;101523.81;5030109;28;20065;-58
2023/03/21 00:29:50;;;;;;;21.92;12.40;;;;;;;8.50;100.00;101531.88;5034494;28;20037;-58
2023/03/21 00:32:16;;;;;;;22.23;12.07;;;;;;;8.50;100.00;101526.56;5022911;28;20037;-60
2023/03/21 00:34:42;;;;;;;20.50;11.82;;;;;;;8.52;100.00;101524.66;5027053;28;20389;-59
2023/03/21 00:37:08;;;;;;;19.63;11.85;;;;;;;8.55;100.00;101520.91;5030983;28;20033;-58
2023/03/21 00:39:34;;;;;;;20.90;11.68;;;;;;;8.55;100.00;101520.91;5034465;28;20025;-58
2023/03/21 00:42:00;;;;;;;20.55;11.65;;;;;;;8.55;100.00;101516.47;5035170;28;20022;-58
2023/03/21 00:44:25;;;;;;;23.30;11.70;;;;;;;8.56;100.00;101515.50;5034490;28;20076;-58
2023/03/21 00:46:51;;;;;;;19.88;11.02;;;;;;;8.58;100.00;101510.06;5028364;28;20034;-59
2023/03/21 00:49:16;;;;;;;20.90;11.55;;;;;;;8.57;100.00;101508.41;5034340;28;20068;-58
2023/03/21 00:51:43;;;;;;;21.55;10.85;;;;;;;8.59;100.00;101506.47;5029255;28;20488;-58
2023/03/21 00:54:13;;;;;;;22.58;10.85;;;;;;;8.60;100.00;101502.84;5032716;28;20029;-58
2023/03/21 00:56:38;;;;;;;23.73;10.60;;;;;;;8.61;100.00;101496.59;5036886;28;20056;-59
2023/03/21 00:59:04;;;;;;;21.10;10.48;;;;;;;8.63;100.00;101502.56;5034316;28;20111;-58
2023/03/21 01:01:30;;;;;;;23.40;10.30;;;;;;;8.62;100.00;101485.03;5026145;28;20034;-58
2023/03/21 01:04:12;;;;;;;19.60;9.82;;;;;;;8.64;100.00;101484.91;5023216;28;20095;-58
2023/03/21 01:06:40;;;;;;;21.30;10.30;;;;;;;8.62;100.00;101479.75;5037168;28;20117;-59
2023/03/21 01:09:18;;;;;;;20.33;10.40;;;;;;;8.62;100.00;101479.75;5034352;28;20046;-58
2023/03/21 01:11:44;;;;;;;22.35;10.23;;;;;;;8.65;100.00;101474.22;5026695;28;20030;-58
2023/03/21 01:14:10;;;;;;;20.45;10.20;;;;;;;8.64;100.00;101477.84;5025536;28;20384;-58
2023/03/21 01:16:35;;;;;;;21.67;9.60;;;;;;;8.65;100.00;101468.94;5023798;28;20026;-58
2023/03/21 01:19:02;;;;;;;20.35;9.25;;;;;;;8.64;100.00;101467.25;5026857;28;20029;-58
2023/03/21 01:21:28;;;;;;;22.52;10.00;;;;;;;8.65;100.00;101463.66;5033300;28;20038;-58
2023/03/21 01:23:53;;;;;;;20.45;9.68;;;;;;;8.66;100.00;101465.31;5032529;28;20034;-58
2023/03/21 01:26:18;;;;;;;20.88;9.70;;;;;;;8.65;100.00;101463.66;5029434;28;20042;-58
2023/03/21 01:28:45;;;;;;;19.92;9.02;;;;;;;8.66;100.00;101462.66;5025176;28;20032;-58
2023/03/21 01:31:14;;;;;;;21.17;9.75;;;;;;;8.66;100.00;101465.31;5033276;28;20021;-59
2023/03/21 01:33:40;;;;;;;18.38;8.88;;;;;;;8.65;100.00;101453.06;5034421;28;20032;-58
2023/03/21 01:36:06;;;;;;;22.13;8.68;;;;;;;8.66;100.00;101460.03;5033695;28;20097;-59
2023/03/21 01:38:31;;;;;;;23.70;8.55;;;;;;;8.65;100.00;101458.34;5034602;28;20036;-58
2023/03/21 01:40:59;;;;;;;19.40;9.20;;;;;;;8.65;100.00;101453.06;5034782;28;20041;-59
2023/03/21 01:43:30;;;;;;;19.85;8.50;;;;;;;8.64;100.00;101445.25;5031694;28;20052;-60
2023/03/21 01:46:20;;;;;;;17.65;8.35;;;;;;;8.65;100.00;101442.50;5026445;28;20033;-59
2023/03/21 01:48:50;;;;;;;16.90;8.85;;;;;;;8.66;100.00;101443.31;5034025;28;20134;-58
2023/03/21 01:51:16;;;;;;;22.83;9.15;;;;;;;8.66;100.00;101445.97;5028629;28;20409;-58
2023/03/21 01:53:41;;;;;;;16.85;8.70;;;;;;;8.67;100.00;101447.63;5025672;28;20469;-58
2023/03/21 01:56:15;;;;;;;20.27;9.27;;;;;;;8.65;100.00;101447.78;5035118;28;20114;-59
2023/03/21 01:58:41;;;;;;;20.42;9.57;;;;;;;8.65;100.00;101447.78;5020886;28;20385;-58
2023/03/21 02:01:08;;;;;;;18.50;8.98;;;;;;;8.64;100.00;101435.53;5013676;28;20030;-58
2023/03/21 02:03:37;;;;;;;21.08;9.52;;;;;;;8.64;100.00;101435.53;5040189;28;20040;-60
2023/03/21 02:06:11;;;;;;;17.95;9.27;;;;;;;8.63;100.00;101428.56;5025139;28;20109;-58
2023/03/21 02:08:36;;;;;;;17.15;9.75;;;;;;;8.64;100.00;101430.25;5041843;28;20036;-58
2023/03/21 02:11:02;;;;;;;19.80;9.00;;;;;;;8.63;100.00;101423.25;5030373;28;20097;-60
2023/03/21 02:13:27;;;;;;;17.75;9.38;;;;;;;8.62;100.00;101421.59;5026499;28;20040;-58
2023/03/21 02:16:00;;;;;;;17.10;9.13;;;;;;;8.61;100.00;101419.94;5031579;28;20051;-58
2023/03/21 02:18:50;;;;;;;;;;;;;;;8.67;100.00;101415.91;5033746;28;20029;-58
2023/03/21 02:21:56;;;;;;;19.05;8.98;;;;;;;8.60;100.00;101412.97;5033154;28;19917;-58
2023/03/21 02:24:52;;;;;;;17.48;9.32;;;;;;;8.57;100.00;101405.28;5019751;28;20084;-58
2023/03/21 02:27:23;;;;;;;17.80;8.82;;;;;;;8.55;100.00;101402.81;5038854;28;20033;-59
2023/03/21 02:29:57;;;;;;;18.40;9.02;;;;;;;8.57;100.00;101405.28;5041437;28;20420;-59
2023/03/21 02:32:50;;;;;;;18.13;9.15;;;;;;;8.60;100.00;101395.28;5029561;28;20044;-59
2023/03/21 02:35:41;;;;;;;16.05;8.82;;;;;;;8.59;100.00;101395.44;5022235;28;20407;-59
2023/03/21 02:38:17;;;;;;;18.35;9.45;;;;;;;8.57;100.00;101394.72;5034183;28;20029;-59
2023/03/21 02:41:03;;;;;;;16.80;8.65;;;;;;;8.58;100.00;101394.59;5032091;28;20041;-58
2023/03/21 02:43:45;;;;;;;17.85;8.98;;;;;;;8.58;100.00;101393.75;5029932;28;20715;-59
2023/03/21 02:46:23;;;;;;;17.80;8.60;;;;;;;8.58;100.00;101383.16;5017999;28;20036;-59
2023/03/21 02:49:06;;;;;;;19.65;8.65;;;;;;;8.58;100.00;101388.47;5024256;28;20485;-59
2023/03/21 02:51:34;;;;;;;20.05;8.95;;;;;;;8.57;100.00;101381.50;5018551;28;20044;-60
2023/03/21 02:54:04;;;;;;;18.30;8.48;;;;;;;8.53;100.00;101377.47;5031867;28;20100;-58
2023/03/21 02:56:32;;;;;;;17.88;8.65;;;;;;;8.56;100.00;101382.47;5031613;28;20037;-58
2023/03/21 02:58:59;;;;;;;17.92;7.97;;;;;;;8.57;100.00;101384.16;5033706;28;20029;-59
2023/03/21 03:01:24;;;;;;;18.33;9.02;;;;;;;8.56;100.00;101375.41;5028011;28;20104;-58
2023/03/21 03:03:50;;;;;;;19.88;8.88;;;;;;;8.57;100.00;101373.56;5029724;28;20027;-59
2023/03/21 03:06:23;;;;;;;19.58;9.00;;;;;;;8.55;100.00;101373.72;5027385;28;20053;-59
2023/03/21 03:09:26;;;;;;;19.80;9.18;;;;;;;8.57;100.00;101371.78;5030815;28;20039;-58
2023/03/21 03:12:02;;;;;;;16.05;8.93;;;;;;;8.54;100.00;101365.94;5023875;28;20034;-59
2023/03/21 03:14:39;;;;;;;18.77;9.23;;;;;;;8.50;100.00;101364.47;5029638;28;20112;-60
2023/03/21 03:17:16;;;;;;;20.85;9.77;;;;;;;8.50;100.00;101359.19;5020050;28;20137;-59
2023/03/21 03:20:05;;;;;;;22.55;9.60;;;;;;;8.48;100.00;101368.09;5028094;28;20056;-59
2023/03/21 03:22:45;;;;;;;19.73;9.68;;;;;;;8.46;100.00;101363.91;5029157;28;20120;-59
2023/03/21 03:25:17;;;;;;;21.95;10.00;;;;;;;8.43;100.00;101367.66;5029496;28;20033;-60
2023/03/21 03:27:45;;;;;;;19.88;10.25;;;;;;;8.41;100.00;101361.69;5040059;28;20033;-59
2023/03/21 03:30:12;;;;;;;19.13;9.43;;;;;;;8.35;100.00;101346.38;5043795;28;20070;-59
2023/03/21 03:32:47;;;;;;;19.20;9.23;;;;;;;8.39;100.00;101350.41;5027435;28;20029;-59
2023/03/21 03:35:16;;;;;;;21.48;9.60;;;;;;;8.39;100.00;101353.03;5012733;28;20030;-58
2023/03/21 03:37:46;;;;;;;19.67;9.32;;;;;;;8.39;100.00;101353.03;5031038;28;20375;-58
2023/03/21 03:40:17;;;;;;;21.23;9.32;;;;;;;8.40;100.00;101357.38;5025301;28;20041;-58
2023/03/21 03:42:52;;;;;;;21.50;9.38;;;;;;;8.40;100.00;101349.44;5030612;28;20081;-58
2023/03/21 03:45:22;;;;;;;23.55;9.70;;;;;;;8.39;100.00;101347.75;5036164;28;20104;-58
2023/03/21 03:48:16;;;;;;;19.55;9.20;;;;;;;8.39;100.00;101336.38;5029090;28;20036;-59
2023/03/21 03:50:48;;;;;;;;;;;;;;;8.44;100.00;101339.44;5025911;28;20038;-58
2023/03/21 03:53:29;;;;;;;20.23;9.82;;;;;;;8.36;100.00;101340.09;5029535;28;20593;-58
2023/03/21 03:55:56;;;;;;;21.52;10.25;;;;;;;8.34;100.00;101339.41;5031594;28;20032;-59
2023/03/21 03:58:23;;;;;;;21.75;9.77;;;;;;;8.33;100.00;101340.38;5017103;28;20462;-59
2023/03/21 04:00:50;;;;;;;18.45;9.60;;;;;;;8.34;100.00;101339.41;5027172;28;20037;-58
2023/03/21 04:03:15;;;;;;;17.92;9.30;;;;;;;8.35;100.00;101341.09;5033189;28;20029;-58
2023/03/21 04:05:41;;;;;;;21.33;9.60;;;;;;;8.32;100.00;101331.63;5036198;28;20098;-58
2023/03/21 04:08:07;;;;;;;19.92;9.73;;;;;;;8.32;100.00;101334.25;5021189;28;20021;-58
2023/03/21 04:10:33;;;;;;;20.65;9.93;;;;;;;8.33;100.00;101333.28;5031667;28;20069;-58
2023/03/21 04:12:58;;;;;;;20.52;9.90;;;;;;;8.32;100.00;101325.47;5037513;28;20056;-58
2023/03/21 04:15:24;;;;;;;23.85;10.32;;;;;;;8.30;100.00;101332.72;5023686;28;20029;-59
2023/03/21 04:17:49;;;;;;;22.08;9.95;;;;;;;8.29;100.00;101317.84;5038633;28;21032;-58
2023/03/21 04:20:15;;;;;;;20.67;10.50;;;;;;;8.30;100.00;101319.50;5034698;28;20100;-59
2023/03/21 04:22:40;;;;;;;24.10;10.18;;;;;;;8.28;100.00;101324.06;5031065;28;20026;-58
2023/03/21 04:25:06;;;;;;;20.63;9.77;;;;;;;8.31;100.00;101326.47;5036513;28;20026;-58
2023/03/21 04:27:32;;;;;;;22.92;9.95;;;;;;;8.31;100.00;101323.81;5035891;28;20144;-59
2023/03/21 04:29:58;;;;;;;19.55;10.00;;;;;;;8.33;100.00;101321.88;5030397;28;20501;-58
2023/03/21 04:32:23;;;;;;;20.77;9.95;;;;;;;8.33;100.00;101321.88;5033366;28;20030;-58
2023/03/21 04:34:52;;;;;;;24.38;10.70;;;;;;;8.32;100.00;101314.91;5024946;28;20017;-58
2023/03/21 04:37:20;;;;;;;24.92;10.40;;;;;;;8.33;100.00;101311.28;5032808;28;20059;-58
2023/03/21 04:39:46;;;;;;;25.38;10.43;;;;;;;8.31;100.00;101307.97;5034846;28;20025;-58
2023/03/21 04:42:13;;;;;;;24.95;10.40;;;;;;;8.30;100.00;101301.00;5025892;28;20026;-58
2023/03/21 04:44:41;;;;;;;20.40;10.25;;;;;;;8.33;100.00;101306.00;5037817;28;20034;-58
2023/03/21 04:47:07;;;;;;;24.25;10.07;;;;;;;8.32;100.00;101302.56;5030228;28;20036;-58
2023/03/21 04:49:32;;;;;;;21.30;9.75;;;;;;;8.32;100.00;101310.47;5039464;28;20044;-59
2023/03/21 04:51:58;;;;;;;21.98;10.18;;;;;;;8.31;100.00;101297.38;5034362;28;20473;-60
2023/03/21 04:54:23;;;;;;;19.85;9.77;;;;;;;8.28;100.00;101293.22;5031613;28;20033;-59
2023/03/21 04:56:50;;;;;;;21.13;9.90;;;;;;;8.30;100.00;101295.72;5031804;28;20120;-58
2023/03/21 04:59:17;;;;;;;19.45;9.70;;;;;;;8.29;100.00;101299.34;5037591;28;20047;-58
2023/03/21 05:01:44;;;;;;;23.25;10.63;;;;;;;8.29;100.00;101291.41;5025023;28;20136;-58
2023/03/21 05:04:11;;;;;;;22.63;9.75;;;;;;;8.28;100.00;101287.06;5040501;28;20036;-59
2023/03/21 05:06:37;;;;;;;21.02;10.55;;;;;;;8.28;100.00;101287.94;5026281;28;20034;-60
2023/03/21 05:09:04;;;;;;;22.42;9.80;;;;;;;8.30;100.00;101290.44;5028793;28;20049;-59
2023/03/21 05:11:31;;;;;;;21.02;9.82;;;;;;;8.32;100.00;101283.19;5031452;28;20041;-58
2023/03/21 05:13:57;;;;;;;21.52;10.05;;;;;;;8.32;100.00;101291.13;5041633;28;20041;-58
2023/03/21 05:16:25;;;;;;;25.73;10.57;;;;;;;8.32;100.00;101283.19;5038061;28;20030;-58
2023/03/21 05:18:52;;;;;;;22.40;9.70;;;;;;;8.33;100.00;101282.22;5031154;28;20025;-58
2023/03/21 05:21:18;;;;;;;23.33;9.63;;;;;;;8.33;100.00;101282.22;5047365;28;20025;-58
2023/03/21 05:23:43;;;;;;;21.58;9.95;;;;;;;8.33;100.00;101284.88;5029070;28;20484;-58
2023/03/21 05:26:09;;;;;;;22.27;9.27;;;;;;;8.34;100.00;101290.03;5032762;28;20033;-59
2023/03/21 05:28:35;;;;;;;22.67;10.30;;;;;;;8.32;100.00;101291.13;5034662;28;20035;-57
2023/03/21 05:31:02;;;;;;;19.88;9.70;;;;;;;8.33;100.00;101290.16;5034832;28;20030;-58
2023/03/21 05:33:27;;;;;;;18.90;9.40;;;;;;;8.34;100.00;101291.84;5037758;28;20037;-58
2023/03/21 05:35:53;;;;;;;18.75;9.40;;;;;;;8.35;100.00;101288.22;5023947;28;20032;-58
2023/03/21 05:38:18;;;;;;;21.67;9.70;;;;;;;8.35;100.00;101285.59;5031615;28;20033;-58
2023/03/21 05:40:48;;;;;;;20.65;9.15;;;;;;;8.37;100.00;101286.28;5031947;28;20056;-57
2023/03/21 05:43:13;;;;;;;21.00;9.48;;;;;;;8.35;100.00;101286.41;5031672;28;20056;-58
2023/03/21 05:45:38;;;;;;;23.67;9.90;;;;;;;8.35;100.00;101278.47;5025609;28;20642;-58
2023/03/21 05:48:04;;;;;;;22.67;9.70;;;;;;;8.36;100.00;101279.31;5026938;28;20510;-58
2023/03/21 05:50:30;;;;;;;19.05;9.68;;;;;;;8.36;100.00;101284.63;5023269;28;20455;-58
2023/03/21 05:52:55;;;;;;;21.38;10.07;;;;;;;8.35;100.00;101283.75;5038555;28;20021;-58
2023/03/21 05:55:20;;;;;;;19.17;9.18;;;;;;;8.35;100.00;101285.59;5025512;28;20040;-58
2023/03/21 05:57:46;;;;;;;24.77;9.45;;;;;;;8.34;100.00;101282.09;5031712;28;20485;-58
2023/03/21 06:00:11;;;;;;;21.52;9.43;;;;;;;8.34;100.00;101282.09;5031564;28;20179;-58
2023/03/21 06:02:38;;;;;;;17.75;9.25;;;;;;;8.38;100.00;101276.56;5026114;28;20033;-58
2023/03/21 06:05:05;;;;;;;20.25;9.13;;;;;;;8.38;100.00;101281.84;5030717;28;20452;-57
2023/03/21 06:07:30;;;;;;;19.60;8.90;;;;;;;8.40;100.00;101279.88;5020985;28;20032;-57
2023/03/21 06:09:56;;;;;;;19.70;9.30;;;;;;;8.40;100.00;101275.44;5031546;28;20104;-58
2023/03/21 06:12:21;;;;;;;20.33;9.13;;;;;;;8.40;100.00;101280.75;5036442;28;20036;-58
2023/03/21 06:14:47;;;;;;;19.23;8.38;;;;;;;8.42;100.00;101278.78;5033576;28;20033;-59
2023/03/21 06:17:12;;;;;;;20.98;8.73;;;;;;;8.44;100.00;101281.28;5028254;28;20029;-59
2023/03/21 06:19:37;;;;;;;20.92;8.45;;;;;;;8.44;100.00;101287.41;5019788;28;20033;-58
2023/03/21 06:22:03;;;;;;;19.48;8.13;;;;;;;8.45;100.00;101289.06;5031095;28;20021;-59
2023/03/21 06:24:28;;;;;;;18.05;8.27;;;;;;;8.48;100.00;101283.53;5029931;28;20041;-59
2023/03/21 06:26:53;;;;;;;21.73;8.02;;;;;;;8.51;100.00;101292.13;5018825;28;20060;-57
2023/03/21 06:29:19;;;;;;;18.05;8.10;;;;;;;8.52;100.00;101277.97;5024601;28;20045;-58
2023/03/21 06:31:44;;;;;;;18.08;7.90;;;;;;;8.55;100.00;101293.56;5021088;28;20501;-58
2023/03/21 06:34:10;;;;;;;17.92;7.68;;;;;;;8.57;100.00;101292.47;5025370;28;20044;-58
2023/03/21 06:36:36;;;;;;;18.10;7.60;;;;;;;8.60;100.00;101301.94;5020889;28;20200;-57
2023/03/21 06:39:02;;;;;;;20.85;7.85;;;;;;;8.62;100.00;101294.69;5020329;28;20876;-58
2023/03/21 06:41:27;;;;;;;18.50;7.60;;;;;;;8.59;100.00;101295.81;5031811;28;20033;-58
2023/03/21 06:43:53;;;;;;;17.73;7.82;;;;;;;8.61;100.00;101293.03;5021264;28;20151;-57
2023/03/21 06:46:18;;;;;;;20.10;7.90;;;;;;;8.60;100.00;101301.94;5022502;28;20029;-58
2023/03/21 06:48:43;;;;;;;17.05;7.10;;;;;;;8.61;100.00;101293.88;5029095;28;20413;-58
2023/03/21 06:51:13;;;;;;;17.50;7.90;;;;;;;8.57;100.00;101287.19;5025094;28;20037;-58
2023/03/21 06:53:40;;;;;;;18.52;8.15;;;;;;;8.60;100.00;101292.19;5023654;28;20551;-58
2023/03/21 06:56:06;;;;;;;17.23;7.78;;;;;;;8.59;100.00;101295.81;5021664;28;20030;-59
2023/03/21 06:58:32;;;;;;;17.35;7.78;;;;;;;8.58;100.00;101298.56;5022201;28;20469;-58
2023/03/21 07:00:58;;;;;;;20.52;8.32;;;;;;;8.60;100.00;101296.66;5025794;28;20041;-58
2023/03/21 07:03:24;;;;;;;19.15;8.18;;;;;;;8.61;100.00;101306.25;5029555;28;20030;-57
2023/03/21 07:05:49;;;;;;;19.52;8.07;;;;;;;8.61;100.00;101303.59;5026846;28;20389;-57
2023/03/21 07:08:15;;;;;;;19.02;7.78;;;;;;;8.62;100.00;101305.28;5023438;28;20036;-58
2023/03/21 07:10:42;;;;;;;16.70;7.97;;;;;;;8.55;100.00;101305.00;5022880;28;20025;-57
2023/03/21 07:13:07;;;;;;;17.23;7.70;;;;;;;8.62;100.00;101310.56;5021947;28;20021;-57
2023/03/21 07:15:36;;;;;;;16.05;7.45;;;;;;;8.60;100.00;101312.50;5024520;28;20060;-57
2023/03/21 07:18:02;;;;;;;20.75;8.05;;;;;;;8.60;100.00;101313.34;5022018;28;20038;-62
2023/03/21 07:20:28;;;;;;;19.40;8.52;;;;;;;8.61;100.00;101312.38;5023004;28;20109;-62
2023/03/21 07:22:53;;;;;;;20.23;8.40;;;;;;;8.64;100.00;101313.91;5021183;28;20152;-62
2023/03/21 07:25:19;;;;;;;17.60;8.35;;;;;;;8.65;100.00;101315.59;5022873;28;20163;-62
2023/03/21 07:27:45;;;;;;;19.25;8.18;;;;;;;8.65;100.00;101315.59;5022484;28;20034;-63
2023/03/21 07:30:11;;;;;;;20.27;8.75;;;;;;;8.68;100.00;101325.06;5018489;28;20030;-62
2023/03/21 07:32:39;;;;;;;19.30;8.98;;;;;;;8.67;100.00;101326.00;5023452;28;20078;-62
2023/03/21 07:35:06;;;;;;;19.63;8.82;;;;;;;8.66;100.00;101322.53;5018473;28;20412;-62
2023/03/21 07:37:31;;;;;;;19.77;9.48;;;;;;;8.67;100.00;101313.63;5026269;28;20037;-58
2023/03/21 07:39:57;;;;;;;18.58;8.63;;;;;;;8.67;100.00;101316.28;5021986;28;20509;-58
2023/03/21 07:42:22;;;;;;;23.48;9.48;;;;;;;8.67;100.00;101310.97;5023703;28;20033;-58
2023/03/21 07:44:47;;;;;;;20.13;9.32;;;;;;;8.67;100.00;101308.34;5026864;28;20040;-58
2023/03/21 07:47:12;;;;;;;19.42;9.57;;;;;;;8.63;100.00;101306.94;5022998;28;20073;-58
2023/03/21 07:49:38;;;;;;;22.67;9.60;;;;;;;8.64;100.00;101306.00;5019559;28;20049;-58
2023/03/21 07:52:05;;;;;;;22.45;10.00;;;;;;;8.59;100.00;101300.28;5026048;28;20042;-57
2023/03/21 07:54:31;;;;;;;19.30;9.82;;;;;;;8.64;100.00;101299.84;5020825;28;20084;-58
2023/03/21 07:56:56;;;;;;;21.40;10.57;;;;;;;8.63;100.00;101293.72;5023068;28;20034;-58
2023/03/21 07:59:22;;;;;;;20.13;10.02;;;;;;;8.64;100.00;101289.28;5016518;28;20034;-58
2023/03/21 08:01:47;;;;;;;23.02;10.60;;;;;;;8.63;100.00;101291.06;5019728;28;20561;-58
2023/03/21 08:04:13;;;;;;;24.40;9.60;;;;;;;8.65;100.00;101283.84;5024499;28;20092;-58
2023/03/21 08:06:39;;;;;;;23.08;10.20;;;;;;;8.66;100.00;101287.31;5018244;28;20026;-58
2023/03/21 08:09:06;;;;;;;23.15;10.32;;;;;;;8.64;100.00;101284.00;5021643;28;20108;-58
2023/03/21 08:11:31;;;;;;;24.48;10.88;;;;;;;8.67;100.00;101273.97;5022422;28;20029;-58
2023/03/21 08:13:57;;;;;;;22.20;10.77;;;;;;;8.71;100.00;101272.72;5026448;28;20021;-59
2023/03/21 08:16:23;;;;;;;23.85;11.10;;;;;;;8.75;100.00;101268.81;5024930;28;20040;-58
2023/03/21 08:18:48;;;;;;;27.08;11.25;;;;;;;8.74;100.00;101261.84;5021749;28;20026;-58
2023/03/21 08:21:13;;;;;;;24.40;10.57;;;;;;;8.78;100.00;101256.31;5026307;28;20375;-57
2023/03/21 08:23:39;;;;;;;21.80;10.75;;;;;;;8.79;100.00;101255.34;5024405;28;20112;-57
2023/03/21 08:26:04;;;;;;;25.00;11.20;;;;;;;8.80;100.00;101254.34;5024728;28;20548;-58
2023/03/21 08:28:30;;;;;;;26.33;11.13;;;;;;;8.81;100.00;101248.94;5027040;28;20041;-58
2023/03/21 08:30:55;;;;;;;21.42;10.13;;;;;;;8.82;100.00;101244.47;5022911;28;20037;-58
2023/03/21 08:33:21;;;;;;;21.35;9.88;;;;;;;8.80;100.00;101249.06;5027925;28;20030;-59
2023/03/21 08:35:47;;;;;;;23.20;10.23;;;;;;;8.80;100.00;101254.34;5030124;28;20494;-58
2023/03/21 08:38:12;;;;;;;20.60;10.45;;;;;;;8.82;100.00;101247.09;5020662;28;20350;-58
2023/03/21 08:40:38;;;;;;;24.48;10.02;;;;;;;8.81;100.00;101251.56;5034072;28;20667;-58
2023/03/21 08:43:03;;;;;;;20.13;9.45;;;;;;;8.81;100.00;101245.44;5026280;28;20028;-58
2023/03/21 08:45:29;;;;;;;22.25;9.50;;;;;;;8.83;100.00;101248.81;5038586;28;20603;-58
2023/03/21 08:47:55;;;;;;;20.13;9.35;;;;;;;8.81;100.00;101245.44;5031556;28;20033;-58
2023/03/21 08:50:23;;;;;;;19.20;8.60;;;;;;;8.81;100.00;101250.72;5032105;28;20037;-58
2023/03/21 08:52:49;;;;;;;16.75;8.90;;;;;;;8.84;100.00;101242.53;5026909;28;20033;-58
2023/03/21 08:55:16;;;;;;;18.40;7.80;;;;;;;8.80;100.00;101249.06;5031724;28;20440;-58
2023/03/21 08:57:43;;;;;;;20.65;8.88;;;;;;;8.84;100.00;101239.88;5024520;28;20037;-57
2023/03/21 09:00:16;;;;;;;17.52;8.52;;;;;;;8.84;100.00;101232.75;5030366;28;20037;-58
2023/03/21 09:02:41;;;;;;;;;;;;;;;8.91;100.00;101230.41;5025861;28;20041;-58
2023/03/21 09:05:08;;;;;;;20.52;8.60;;;;;;;8.85;100.00;101230.97;5027291;28;19925;-58
2023/03/21 09:07:35;;;;;;;20.95;9.05;;;;;;;8.89;100.00;101232.38;5030804;28;20091;-58
2023/03/21 09:10:02;;;;;;;18.10;9.20;;;;;;;8.94;100.00;101230.09;5034959;28;20403;-57
2023/03/21 09:12:27;;;;;;;17.95;9.15;;;;;;;8.96;100.00;101235.25;5026453;28;20032;-58
2023/03/21 09:14:52;;;;;;;21.15;9.00;;;;;;;8.97;100.00;101229.84;5042097;28;20105;-57
2023/03/21 09:17:18;;;;;;;20.20;9.27;;;;;;;9.02;100.00;101232.91;5036466;28;20312;-58
2023/03/21 09:19:45;;;;;;;18.33;8.55;;;;;;;9.02;100.00;101227.59;5032920;28;20029;-58
2023/03/21 09:22:16;;;;;;;18.10;8.93;;;;;;;9.06;100.00;101227.31;5026806;28;20042;-57
2023/03/21 09:24:42;;;;;;;22.35;9.30;;;;;;;9.10;100.00;101231.34;5036878;28;20120;-57
2023/03/21 09:27:07;;;;;;;18.67;8.63;;;;;;;9.09;100.00;101219.09;5021689;28;20167;-58
2023/03/21 09:29:33;;;;;;;20.42;8.23;;;;;;;9.11;100.00;101218.00;5036100;28;20041;-59
2023/03/21 09:32:00;;;;;;;20.20;8.43;;;;;;;9.12;100.00;101211.72;5033937;28;20047;-58
2023/03/21 09:34:27;;;;;;;20.10;7.97;;;;;;;9.19;100.00;101214.63;5034748;28;20032;-58
2023/03/21 09:36:55;;;;;;;18.20;8.10;;;;;;;9.25;100.00;101215.88;5046343;28;20040;-57
2023/03/21 09:39:21;;;;;;;15.10;7.97;;;;;;;9.25;100.00;101211.41;5024613;28;20063;-58
2023/03/21 09:42:00;;;;;;;17.23;7.53;;;;;;;9.27;100.00;101208.59;5037371;28;20033;-57
2023/03/21 09:44:57;;;;;;;13.73;7.40;;;;;;;9.31;100.00;101214.47;5039897;28;20104;-58
2023/03/21 09:47:31;;;;;;;18.60;7.20;;;;;;;9.28;100.00;101211.13;5030638;28;20133;-57
2023/03/21 09:50:02;;;;;;;15.65;7.65;;;;;;;9.34;100.00;101208.88;5026381;28;20135;-58
2023/03/21 09:52:42;;;;;;;17.60;7.65;;;;;;;9.35;100.00;101202.59;5027052;28;20512;-57
2023/03/21 09:55:18;;;;;;;17.58;7.50;;;;;;;9.40;100.00;101209.13;5033794;28;20082;-57
2023/03/21 09:57:47;;;;;;;15.60;7.47;;;;;;;9.46;100.00;101194.47;5030100;28;20080;-58
2023/03/21 10:00:28;;;;;;;14.85;7.13;;;;;;;9.51;100.00;101199.31;5034808;28;20151;-58
2023/03/21 10:03:00;;;;;;;14.93;6.60;;;;;;;9.52;100.00;101188.59;5021131;28;20090;-58
2023/03/21 10:05:31;;;;;;;16.75;7.18;;;;;;;9.57;100.00;101182.03;5026782;28;20533;-57
2023/03/21 10:08:08;;;;;;;13.25;6.72;;;;;;;9.65;100.00;101184.78;5028726;28;20072;-58
2023/03/21 10:10:38;;;;;;;14.93;6.90;;;;;;;9.67;100.00;101182.84;5023164;28;20037;-58
2023/03/21 10:13:12;;;;;;;16.42;7.03;;;;;;;9.73;100.00;101182.25;5036149;28;20056;-57
2023/03/21 10:15:37;;;;;;;13.73;7.43;;;;;;;9.78;100.00;101185.25;5039001;28;20347;-58
2023/03/21 10:18:13;;;;;;;14.82;6.80;;;;;;;9.82;100.00;101176.06;5022624;28;20079;-57
2023/03/21 10:20:41;;;;;;;15.93;6.88;;;;;;;9.83;100.00;101169.78;5028550;28;20393;-58
2023/03/21 10:23:12;;;;;;;14.48;7.10;;;;;;;9.90;100.00;101171.81;5015307;28;20030;-58
2023/03/21 10:25:54;;;;;;;12.93;7.22;;;;;;;10.02;100.00;101173.28;5020898;28;20429;-59
2023/03/21 10:28:25;;;;;;;15.80;6.50;;;;;;;10.06;100.00;101168.50;5029359;28;20018;-58
2023/03/21 10:31:14;;;;;;;16.23;6.22;;;;;;;10.18;100.00;101177.09;5028681;28;20091;-57
2023/03/21 10:33:43;;;;;;;12.90;6.22;;;;;;;10.21;100.00;101174.13;5024185;28;20083;-59
2023/03/21 10:36:19;;;;;;;13.27;6.50;;;;;;;10.25;100.00;101164.91;5027061;28;20060;-59
2023/03/21 10:38:48;;;;;;;14.23;6.20;;;;;;;10.30;100.00;101162.63;5026338;28;20026;-58
2023/03/21 10:41:13;;;;;;;16.05;6.38;;;;;;;10.41;100.00;101169.50;5028049;28;20030;-58
2023/03/21 10:43:40;;;;;;;15.75;6.30;;;;;;;10.46;100.00;101177.88;5030921;28;20491;-58
2023/03/21 10:46:22;;;;;;;14.40;6.32;;;;;;;10.50;99.17;101178.41;5024424;28;20030;-59
2023/03/21 10:48:52;;;;;;;14.00;6.50;;;;;;;10.55;99.57;101180.63;5023242;28;20179;-58
2023/03/21 10:51:25;;;;;;;14.75;6.30;;;;;;;10.59;98.46;101177.50;5028265;28;20062;-58
2023/03/21 10:53:55;;;;;;;14.10;6.20;;;;;;;10.62;98.15;101185.13;5030435;28;20104;-57
2023/03/21 10:56:28;;;;;;;13.70;6.20;;;;;;;10.68;97.56;101175.75;5031228;28;20029;-58
2023/03/21 10:58:57;;;;;;;12.32;5.70;;;;;;;10.74;97.04;101175.13;5028479;28;20381;-57
2023/03/21 11:01:33;;;;;;;12.43;5.85;;;;;;;10.86;95.66;101177.53;5026272;28;20076;-58
2023/03/21 11:04:04;;;;;;;13.88;5.90;;;;;;;10.93;95.07;101161.81;5024428;28;20451;-61
2023/03/21 11:06:32;;;;;;;16.45;6.05;;;;;;;10.99;95.21;101151.41;5025166;28;20052;-58
2023/03/21 11:09:07;;;;;;;12.77;6.13;;;;;;;11.06;94.44;101167.56;5029406;28;20040;-58
2023/03/21 11:11:47;;;;;;;13.38;5.82;;;;;;;11.11;93.15;101159.94;5022121;28;20136;-58
2023/03/21 11:14:25;;;;;;;12.82;5.70;;;;;;;11.17;92.35;101164.59;5027651;28;20495;-59
2023/03/21 11:16:50;;;;;;;11.98;5.82;;;;;;;11.16;90.71;101157.63;5015051;28;20033;-58
2023/03/21 11:19:19;;;;;;;12.93;5.72;;;;;;;11.20;91.10;101163.47;5024715;28;20107;-58
2023/03/21 11:21:45;;;;;;;12.75;5.65;;;;;;;11.21;90.18;101164.31;5017148;28;20022;-58
2023/03/21 11:24:15;;;;;;;11.05;5.43;;;;;;;11.25;88.67;101165.66;5022680;28;20430;-58